sensor_id;sensor_type;location;lat;lon;timestamp;P1;P2;P0
80692;PMS5003;70055;39.436;-77.514;2023-06-14T00:00:03;12;12;
80692;PMS5003;70055;39.436;-77.514;2023-06-14T00:02:32;10;10;
80692;PMS5003;70055;39.436;-77.514;2023-06-14T00:05:01;13;13;
80692;PMS5003;70055;39.436;-77.514;2023-06-14T00:07:34;13;13;
80692;PMS5003;70055;39.436;-77.514;2023-06-14T00:10:03;11;11;
80692;PMS5003;70055;39.436;-77.514;2023-06-14T00:12:32;13;13;
80692;PMS5003;70055;39.436;-77.514;2023-06-14T00:15:00;14;13;
80692;PMS5003;70055;39.436;-77.514;2023-06-14T00:17:29;13;12;
80692;PMS5003;70055;39.436;-77.514;2023-06-14T00:19:57;13;13;
80692;PMS5003;70055;39.436;-77.514;2023-06-14T00:22:25;12;12;
80692;PMS5003;70055;39.436;-77.514;2023-06-14T00:24:53;16;15;
80692;PMS5003;70055;39.436;-77.514;2023-06-14T00:27:22;14;14;
80692;PMS5003;70055;39.436;-77.514;2023-06-14T00:29:50;14;14;
80692;PMS5003;70055;39.436;-77.514;2023-06-14T00:32:18;15;15;
80692;PMS5003;70055;39.436;-77.514;2023-06-14T00:34:47;14;13;
80692;PMS5003;70055;39.436;-77.514;2023-06-14T00:37:16;16;15;
80692;PMS5003;70055;39.436;-77.514;2023-06-14T00:39:43;11;11;
80692;PMS5003;70055;39.436;-77.514;2023-06-14T00:42:22;13;12;
80692;PMS5003;70055;39.436;-77.514;2023-06-14T00:44:51;13;13;
80692;PMS5003;70055;39.436;-77.514;2023-06-14T00:47:20;13;13;
80692;PMS5003;70055;39.436;-77.514;2023-06-14T00:49:49;13;13;
80692;PMS5003;70055;39.436;-77.514;2023-06-14T00:52:17;13;13;
80692;PMS5003;70055;39.436;-77.514;2023-06-14T00:54:47;13;12;
80692;PMS5003;70055;39.436;-77.514;2023-06-14T00:57:15;13;12;
80692;PMS5003;70055;39.436;-77.514;2023-06-14T00:59:44;16;15;
80692;PMS5003;70055;39.436;-77.514;2023-06-14T01:02:16;14;14;
80692;PMS5003;70055;39.436;-77.514;2023-06-14T01:04:45;12;12;
80692;PMS5003;70055;39.436;-77.514;2023-06-14T01:07:18;15;15;
80692;PMS5003;70055;39.436;-77.514;2023-06-14T01:09:58;13;13;
80692;PMS5003;70055;39.436;-77.514;2023-06-14T01:12:37;16;14;
80692;PMS5003;70055;39.436;-77.514;2023-06-14T01:15:12;13;13;
80692;PMS5003;70055;39.436;-77.514;2023-06-14T01:17:41;13;13;
80692;PMS5003;70055;39.436;-77.514;2023-06-14T01:20:12;14;14;
80692;PMS5003;70055;39.436;-77.514;2023-06-14T01:22:48;17;15;
80692;PMS5003;70055;39.436;-77.514;2023-06-14T01:25:17;13;13;
80692;PMS5003;70055;39.436;-77.514;2023-06-14T01:27:48;16;16;
80692;PMS5003;70055;39.436;-77.514;2023-06-14T01:30:16;13;13;
80692;PMS5003;70055;39.436;-77.514;2023-06-14T01:32:47;14;14;
80692;PMS5003;70055;39.436;-77.514;2023-06-14T01:35:17;15;15;
80692;PMS5003;70055;39.436;-77.514;2023-06-14T01:37:46;16;14;
80692;PMS5003;70055;39.436;-77.514;2023-06-14T01:40:16;15;15;
80692;PMS5003;70055;39.436;-77.514;2023-06-14T01:42:47;14;14;
80692;PMS5003;70055;39.436;-77.514;2023-06-14T01:45:17;13;13;
80692;PMS5003;70055;39.436;-77.514;2023-06-14T01:47:46;19;17;
80692;PMS5003;70055;39.436;-77.514;2023-06-14T01:50:15;14;14;
80692;PMS5003;70055;39.436;-77.514;2023-06-14T01:52:45;15;15;
80692;PMS5003;70055;39.436;-77.514;2023-06-14T01:55:17;13;13;
80692;PMS5003;70055;39.436;-77.514;2023-06-14T01:57:46;17;16;
80692;PMS5003;70055;39.436;-77.514;2023-06-14T02:00:16;15;15;
80692;PMS5003;70055;39.436;-77.514;2023-06-14T02:02:46;14;13;
80692;PMS5003;70055;39.436;-77.514;2023-06-14T02:05:15;13;13;
80692;PMS5003;70055;39.436;-77.514;2023-06-14T02:07:43;14;14;
80692;PMS5003;70055;39.436;-77.514;2023-06-14T02:10:12;14;13;
80692;PMS5003;70055;39.436;-77.514;2023-06-14T02:12:43;14;14;
80692;PMS5003;70055;39.436;-77.514;2023-06-14T02:15:12;12;12;
80692;PMS5003;70055;39.436;-77.514;2023-06-14T02:17:42;13;13;
80692;PMS5003;70055;39.436;-77.514;2023-06-14T02:20:11;14;14;
80692;PMS5003;70055;39.436;-77.514;2023-06-14T02:22:39;14;14;
80692;PMS5003;70055;39.436;-77.514;2023-06-14T02:25:08;13;13;
80692;PMS5003;70055;39.436;-77.514;2023-06-14T02:27:41;12;12;
80692;PMS5003;70055;39.436;-77.514;2023-06-14T02:30:14;15;15;
80692;PMS5003;70055;39.436;-77.514;2023-06-14T02:32:43;14;13;
80692;PMS5003;70055;39.436;-77.514;2023-06-14T02:35:11;13;13;
80692;PMS5003;70055;39.436;-77.514;2023-06-14T02:37:43;13;13;
80692;PMS5003;70055;39.436;-77.514;2023-06-14T02:40:13;14;13;
80692;PMS5003;70055;39.436;-77.514;2023-06-14T02:42:40;14;13;
80692;PMS5003;70055;39.436;-77.514;2023-06-14T02:45:09;12;12;
80692;PMS5003;70055;39.436;-77.514;2023-06-14T02:47:38;16;16;
80692;PMS5003;70055;39.436;-77.514;2023-06-14T02:50:07;14;13;
80692;PMS5003;70055;39.436;-77.514;2023-06-14T02:52:36;15;15;
80692;PMS5003;70055;39.436;-77.514;2023-06-14T02:55:05;17;16;
80692;PMS5003;70055;39.436;-77.514;2023-06-14T02:57:34;12;12;
80692;PMS5003;70055;39.436;-77.514;2023-06-14T03:00:02;15;15;
80692;PMS5003;70055;39.436;-77.514;2023-06-14T03:02:32;16;16;
80692;PMS5003;70055;39.436;-77.514;2023-06-14T03:05:00;15;15;
80692;PMS5003;70055;39.436;-77.514;2023-06-14T03:07:29;16;15;
80692;PMS5003;70055;39.436;-77.514;2023-06-14T03:09:57;14;14;
80692;PMS5003;70055;39.436;-77.514;2023-06-14T03:12:25;13;13;
80692;PMS5003;70055;39.436;-77.514;2023-06-14T03:14:53;14;13;
80692;PMS5003;70055;39.436;-77.514;2023-06-14T03:17:21;16;16;
80692;PMS5003;70055;39.436;-77.514;2023-06-14T03:19:49;14;14;
80692;PMS5003;70055;39.436;-77.514;2023-06-14T03:22:18;15;14;
80692;PMS5003;70055;39.436;-77.514;2023-06-14T03:24:45;13;13;
80692;PMS5003;70055;39.436;-77.514;2023-06-14T03:27:13;16;14;
80692;PMS5003;70055;39.436;-77.514;2023-06-14T03:29:41;14;14;
80692;PMS5003;70055;39.436;-77.514;2023-06-14T03:32:10;13;13;
80692;PMS5003;70055;39.436;-77.514;2023-06-14T03:34:38;15;14;
80692;PMS5003;70055;39.436;-77.514;2023-06-14T03:37:06;18;18;
80692;PMS5003;70055;39.436;-77.514;2023-06-14T03:39:34;15;15;
80692;PMS5003;70055;39.436;-77.514;2023-06-14T03:42:02;15;15;
80692;PMS5003;70055;39.436;-77.514;2023-06-14T03:44:31;16;16;
80692;PMS5003;70055;39.436;-77.514;2023-06-14T03:46:59;15;15;
80692;PMS5003;70055;39.436;-77.514;2023-06-14T03:49:27;12;12;
80692;PMS5003;70055;39.436;-77.514;2023-06-14T03:51:55;14;13;
80692;PMS5003;70055;39.436;-77.514;2023-06-14T03:54:24;15;14;
80692;PMS5003;70055;39.436;-77.514;2023-06-14T03:56:51;14;14;
80692;PMS5003;70055;39.436;-77.514;2023-06-14T03:59:19;14;13;
80692;PMS5003;70055;39.436;-77.514;2023-06-14T04:01:48;13;13;
80692;PMS5003;70055;39.436;-77.514;2023-06-14T04:04:16;14;13;
80692;PMS5003;70055;39.436;-77.514;2023-06-14T04:06:44;14;14;
80692;PMS5003;70055;39.436;-77.514;2023-06-14T04:09:12;18;16;
80692;PMS5003;70055;39.436;-77.514;2023-06-14T04:11:39;17;17;
80692;PMS5003;70055;39.436;-77.514;2023-06-14T04:14:08;14;14;
80692;PMS5003;70055;39.436;-77.514;2023-06-14T04:16:36;16;16;
80692;PMS5003;70055;39.436;-77.514;2023-06-14T04:19:05;12;12;
80692;PMS5003;70055;39.436;-77.514;2023-06-14T04:21:34;17;17;
80692;PMS5003;70055;39.436;-77.514;2023-06-14T04:24:03;16;16;
80692;PMS5003;70055;39.436;-77.514;2023-06-14T04:26:31;14;14;
80692;PMS5003;70055;39.436;-77.514;2023-06-14T04:28:59;20;18;
80692;PMS5003;70055;39.436;-77.514;2023-06-14T04:31:28;14;14;
80692;PMS5003;70055;39.436;-77.514;2023-06-14T04:33:56;19;18;
80692;PMS5003;70055;39.436;-77.514;2023-06-14T04:36:24;19;19;
80692;PMS5003;70055;39.436;-77.514;2023-06-14T04:38:52;16;15;
80692;PMS5003;70055;39.436;-77.514;2023-06-14T04:41:20;14;14;
80692;PMS5003;70055;39.436;-77.514;2023-06-14T04:43:49;16;16;
80692;PMS5003;70055;39.436;-77.514;2023-06-14T04:46:17;18;18;
80692;PMS5003;70055;39.436;-77.514;2023-06-14T04:48:45;14;14;
80692;PMS5003;70055;39.436;-77.514;2023-06-14T04:51:14;18;18;
80692;PMS5003;70055;39.436;-77.514;2023-06-14T04:53:41;17;17;
80692;PMS5003;70055;39.436;-77.514;2023-06-14T04:56:09;19;18;
80692;PMS5003;70055;39.436;-77.514;2023-06-14T04:58:37;16;16;
80692;PMS5003;70055;39.436;-77.514;2023-06-14T05:01:05;17;17;
80692;PMS5003;70055;39.436;-77.514;2023-06-14T05:03:32;15;14;
80692;PMS5003;70055;39.436;-77.514;2023-06-14T05:06:01;16;16;
80692;PMS5003;70055;39.436;-77.514;2023-06-14T05:08:28;16;15;
80692;PMS5003;70055;39.436;-77.514;2023-06-14T05:10:56;17;17;
80692;PMS5003;70055;39.436;-77.514;2023-06-14T05:13:24;20;20;
80692;PMS5003;70055;39.436;-77.514;2023-06-14T05:15:52;16;16;
80692;PMS5003;70055;39.436;-77.514;2023-06-14T05:18:20;14;14;
80692;PMS5003;70055;39.436;-77.514;2023-06-14T05:20:48;18;17;
80692;PMS5003;70055;39.436;-77.514;2023-06-14T05:23:16;21;20;
80692;PMS5003;70055;39.436;-77.514;2023-06-14T05:25:45;15;15;
80692;PMS5003;70055;39.436;-77.514;2023-06-14T05:28:13;14;14;
80692;PMS5003;70055;39.436;-77.514;2023-06-14T05:30:42;18;17;
80692;PMS5003;70055;39.436;-77.514;2023-06-14T05:33:10;16;16;
80692;PMS5003;70055;39.436;-77.514;2023-06-14T05:35:38;15;15;
80692;PMS5003;70055;39.436;-77.514;2023-06-14T05:38:06;15;14;
80692;PMS5003;70055;39.436;-77.514;2023-06-14T05:40:34;17;16;
80692;PMS5003;70055;39.436;-77.514;2023-06-14T05:43:03;15;15;
80692;PMS5003;70055;39.436;-77.514;2023-06-14T05:45:31;16;16;
80692;PMS5003;70055;39.436;-77.514;2023-06-14T05:47:59;16;16;
80692;PMS5003;70055;39.436;-77.514;2023-06-14T05:50:27;15;15;
80692;PMS5003;70055;39.436;-77.514;2023-06-14T05:52:55;16;16;
80692;PMS5003;70055;39.436;-77.514;2023-06-14T05:55:23;18;16;
80692;PMS5003;70055;39.436;-77.514;2023-06-14T05:57:51;16;16;
80692;PMS5003;70055;39.436;-77.514;2023-06-14T06:00:20;20;19;
80692;PMS5003;70055;39.436;-77.514;2023-06-14T06:02:48;14;14;
80692;PMS5003;70055;39.436;-77.514;2023-06-14T06:05:16;16;16;
80692;PMS5003;70055;39.436;-77.514;2023-06-14T06:07:44;18;18;
80692;PMS5003;70055;39.436;-77.514;2023-06-14T06:10:12;19;18;
80692;PMS5003;70055;39.436;-77.514;2023-06-14T06:12:41;16;15;
80692;PMS5003;70055;39.436;-77.514;2023-06-14T06:15:10;15;14;
80692;PMS5003;70055;39.436;-77.514;2023-06-14T06:17:39;16;16;
80692;PMS5003;70055;39.436;-77.514;2023-06-14T06:20:07;18;18;
80692;PMS5003;70055;39.436;-77.514;2023-06-14T06:22:35;16;16;
80692;PMS5003;70055;39.436;-77.514;2023-06-14T06:25:04;16;16;
80692;PMS5003;70055;39.436;-77.514;2023-06-14T06:27:33;16;16;
80692;PMS5003;70055;39.436;-77.514;2023-06-14T06:30:02;15;14;
80692;PMS5003;70055;39.436;-77.514;2023-06-14T06:32:30;17;17;
80692;PMS5003;70055;39.436;-77.514;2023-06-14T06:34:58;16;16;
80692;PMS5003;70055;39.436;-77.514;2023-06-14T06:37:26;15;15;
80692;PMS5003;70055;39.436;-77.514;2023-06-14T06:39:54;18;17;
80692;PMS5003;70055;39.436;-77.514;2023-06-14T06:42:22;16;16;
80692;PMS5003;70055;39.436;-77.514;2023-06-14T06:44:51;16;15;
80692;PMS5003;70055;39.436;-77.514;2023-06-14T06:47:19;18;17;
80692;PMS5003;70055;39.436;-77.514;2023-06-14T06:49:46;17;16;
80692;PMS5003;70055;39.436;-77.514;2023-06-14T06:52:15;18;18;
80692;PMS5003;70055;39.436;-77.514;2023-06-14T06:54:42;14;14;
80692;PMS5003;70055;39.436;-77.514;2023-06-14T06:57:10;14;14;
80692;PMS5003;70055;39.436;-77.514;2023-06-14T06:59:38;16;16;
80692;PMS5003;70055;39.436;-77.514;2023-06-14T07:02:06;18;18;
80692;PMS5003;70055;39.436;-77.514;2023-06-14T07:04:35;18;18;
80692;PMS5003;70055;39.436;-77.514;2023-06-14T07:07:02;16;16;
80692;PMS5003;70055;39.436;-77.514;2023-06-14T07:09:30;19;18;
80692;PMS5003;70055;39.436;-77.514;2023-06-14T07:11:58;18;17;
80692;PMS5003;70055;39.436;-77.514;2023-06-14T07:14:26;17;17;
80692;PMS5003;70055;39.436;-77.514;2023-06-14T07:16:54;14;14;
80692;PMS5003;70055;39.436;-77.514;2023-06-14T07:19:22;18;18;
80692;PMS5003;70055;39.436;-77.514;2023-06-14T07:21:50;19;19;
80692;PMS5003;70055;39.436;-77.514;2023-06-14T07:24:19;17;16;
80692;PMS5003;70055;39.436;-77.514;2023-06-14T07:26:47;17;16;
80692;PMS5003;70055;39.436;-77.514;2023-06-14T07:29:15;15;15;
80692;PMS5003;70055;39.436;-77.514;2023-06-14T07:31:43;16;16;
80692;PMS5003;70055;39.436;-77.514;2023-06-14T07:34:11;17;16;
80692;PMS5003;70055;39.436;-77.514;2023-06-14T07:36:39;17;17;
80692;PMS5003;70055;39.436;-77.514;2023-06-14T07:39:07;17;17;
80692;PMS5003;70055;39.436;-77.514;2023-06-14T07:41:35;20;20;
80692;PMS5003;70055;39.436;-77.514;2023-06-14T07:44:03;19;19;
80692;PMS5003;70055;39.436;-77.514;2023-06-14T07:46:32;16;16;
80692;PMS5003;70055;39.436;-77.514;2023-06-14T07:49:00;16;16;
80692;PMS5003;70055;39.436;-77.514;2023-06-14T07:51:28;21;21;
80692;PMS5003;70055;39.436;-77.514;2023-06-14T07:53:56;19;18;
80692;PMS5003;70055;39.436;-77.514;2023-06-14T07:56:26;17;17;
80692;PMS5003;70055;39.436;-77.514;2023-06-14T07:58:53;16;16;
80692;PMS5003;70055;39.436;-77.514;2023-06-14T08:01:21;17;17;
80692;PMS5003;70055;39.436;-77.514;2023-06-14T08:03:49;15;14;
80692;PMS5003;70055;39.436;-77.514;2023-06-14T08:06:17;16;16;
80692;PMS5003;70055;39.436;-77.514;2023-06-14T08:08:45;16;16;
80692;PMS5003;70055;39.436;-77.514;2023-06-14T08:11:13;18;17;
80692;PMS5003;70055;39.436;-77.514;2023-06-14T08:13:41;18;17;
80692;PMS5003;70055;39.436;-77.514;2023-06-14T08:16:09;19;18;
80692;PMS5003;70055;39.436;-77.514;2023-06-14T08:18:38;16;16;
80692;PMS5003;70055;39.436;-77.514;2023-06-14T08:21:07;18;18;
80692;PMS5003;70055;39.436;-77.514;2023-06-14T08:23:35;16;16;
80692;PMS5003;70055;39.436;-77.514;2023-06-14T08:26:04;19;19;
80692;PMS5003;70055;39.436;-77.514;2023-06-14T08:28:32;18;18;
80692;PMS5003;70055;39.436;-77.514;2023-06-14T08:31:00;19;19;
80692;PMS5003;70055;39.436;-77.514;2023-06-14T08:33:28;18;18;
80692;PMS5003;70055;39.436;-77.514;2023-06-14T08:35:56;17;17;
80692;PMS5003;70055;39.436;-77.514;2023-06-14T08:38:23;19;18;
80692;PMS5003;70055;39.436;-77.514;2023-06-14T08:40:52;14;14;
80692;PMS5003;70055;39.436;-77.514;2023-06-14T08:43:24;17;17;
80692;PMS5003;70055;39.436;-77.514;2023-06-14T08:45:53;16;16;
80692;PMS5003;70055;39.436;-77.514;2023-06-14T08:48:27;19;18;
80692;PMS5003;70055;39.436;-77.514;2023-06-14T08:50:56;18;18;
80692;PMS5003;70055;39.436;-77.514;2023-06-14T08:53:26;15;15;
80692;PMS5003;70055;39.436;-77.514;2023-06-14T08:55:55;14;14;
80692;PMS5003;70055;39.436;-77.514;2023-06-14T08:58:24;15;15;
80692;PMS5003;70055;39.436;-77.514;2023-06-14T09:00:52;16;16;
80692;PMS5003;70055;39.436;-77.514;2023-06-14T09:03:21;16;15;
80692;PMS5003;70055;39.436;-77.514;2023-06-14T09:05:49;18;17;
80692;PMS5003;70055;39.436;-77.514;2023-06-14T09:08:17;12;12;
80692;PMS5003;70055;39.436;-77.514;2023-06-14T09:10:45;16;16;
80692;PMS5003;70055;39.436;-77.514;2023-06-14T09:13:13;16;16;
80692;PMS5003;70055;39.436;-77.514;2023-06-14T09:15:41;16;15;
80692;PMS5003;70055;39.436;-77.514;2023-06-14T09:18:09;17;16;
80692;PMS5003;70055;39.436;-77.514;2023-06-14T09:20:38;19;18;
80692;PMS5003;70055;39.436;-77.514;2023-06-14T09:23:06;13;13;
80692;PMS5003;70055;39.436;-77.514;2023-06-14T09:25:41;16;16;
80692;PMS5003;70055;39.436;-77.514;2023-06-14T09:28:10;15;15;
80692;PMS5003;70055;39.436;-77.514;2023-06-14T09:30:38;16;16;
80692;PMS5003;70055;39.436;-77.514;2023-06-14T09:33:06;16;16;
80692;PMS5003;70055;39.436;-77.514;2023-06-14T09:35:34;19;16;
80692;PMS5003;70055;39.436;-77.514;2023-06-14T09:38:03;12;12;
80692;PMS5003;70055;39.436;-77.514;2023-06-14T09:40:33;15;15;
80692;PMS5003;70055;39.436;-77.514;2023-06-14T09:43:03;16;16;
80692;PMS5003;70055;39.436;-77.514;2023-06-14T09:45:33;16;16;
80692;PMS5003;70055;39.436;-77.514;2023-06-14T09:48:01;17;17;
80692;PMS5003;70055;39.436;-77.514;2023-06-14T09:50:30;18;18;
80692;PMS5003;70055;39.436;-77.514;2023-06-14T09:52:59;15;15;
80692;PMS5003;70055;39.436;-77.514;2023-06-14T09:55:30;14;14;
80692;PMS5003;70055;39.436;-77.514;2023-06-14T09:58:00;17;16;
80692;PMS5003;70055;39.436;-77.514;2023-06-14T10:00:33;14;14;
80692;PMS5003;70055;39.436;-77.514;2023-06-14T10:03:03;18;18;
80692;PMS5003;70055;39.436;-77.514;2023-06-14T10:05:39;14;14;
80692;PMS5003;70055;39.436;-77.514;2023-06-14T10:08:13;15;15;
80692;PMS5003;70055;39.436;-77.514;2023-06-14T10:10:42;16;15;
80692;PMS5003;70055;39.436;-77.514;2023-06-14T10:13:11;17;17;
80692;PMS5003;70055;39.436;-77.514;2023-06-14T10:15:42;13;13;
80692;PMS5003;70055;39.436;-77.514;2023-06-14T10:18:22;17;17;
80692;PMS5003;70055;39.436;-77.514;2023-06-14T10:21:01;15;14;
80692;PMS5003;70055;39.436;-77.514;2023-06-14T10:23:37;16;16;
80692;PMS5003;70055;39.436;-77.514;2023-06-14T10:26:08;12;12;
80692;PMS5003;70055;39.436;-77.514;2023-06-14T10:28:44;18;16;
80692;PMS5003;70055;39.436;-77.514;2023-06-14T10:31:23;15;15;
80692;PMS5003;70055;39.436;-77.514;2023-06-14T10:34:08;15;15;
80692;PMS5003;70055;39.436;-77.514;2023-06-14T10:36:37;13;13;
80692;PMS5003;70055;39.436;-77.514;2023-06-14T10:39:07;11;10;
80692;PMS5003;70055;39.436;-77.514;2023-06-14T10:41:41;11;11;
80692;PMS5003;70055;39.436;-77.514;2023-06-14T10:45:21;15;15;
80692;PMS5003;70055;39.436;-77.514;2023-06-14T10:47:49;17;17;
80692;PMS5003;70055;39.436;-77.514;2023-06-14T10:50:17;16;15;
80692;PMS5003;70055;39.436;-77.514;2023-06-14T10:52:54;15;15;
80692;PMS5003;70055;39.436;-77.514;2023-06-14T10:55:23;12;12;
80692;PMS5003;70055;39.436;-77.514;2023-06-14T10:57:51;16;16;
80692;PMS5003;70055;39.436;-77.514;2023-06-14T11:00:21;12;12;
80692;PMS5003;70055;39.436;-77.514;2023-06-14T11:02:51;16;15;
80692;PMS5003;70055;39.436;-77.514;2023-06-14T11:06:12;14;14;
80692;PMS5003;70055;39.436;-77.514;2023-06-14T11:08:50;12;12;
80692;PMS5003;70055;39.436;-77.514;2023-06-14T11:11:47;15;15;
80692;PMS5003;70055;39.436;-77.514;2023-06-14T11:14:17;16;15;
80692;PMS5003;70055;39.436;-77.514;2023-06-14T11:16:48;16;16;
80692;PMS5003;70055;39.436;-77.514;2023-06-14T11:19:16;15;15;
80692;PMS5003;70055;39.436;-77.514;2023-06-14T11:21:47;16;15;
80692;PMS5003;70055;39.436;-77.514;2023-06-14T11:24:16;17;14;
80692;PMS5003;70055;39.436;-77.514;2023-06-14T11:26:46;17;15;
80692;PMS5003;70055;39.436;-77.514;2023-06-14T11:29:15;16;15;
80692;PMS5003;70055;39.436;-77.514;2023-06-14T11:31:46;13;13;
80692;PMS5003;70055;39.436;-77.514;2023-06-14T11:34:15;19;19;
80692;PMS5003;70055;39.436;-77.514;2023-06-14T11:36:43;22;19;
80692;PMS5003;70055;39.436;-77.514;2023-06-14T11:39:12;16;16;
80692;PMS5003;70055;39.436;-77.514;2023-06-14T11:41:41;19;19;
80692;PMS5003;70055;39.436;-77.514;2023-06-14T11:44:10;17;17;
80692;PMS5003;70055;39.436;-77.514;2023-06-14T11:46:39;17;17;
80692;PMS5003;70055;39.436;-77.514;2023-06-14T11:49:07;18;18;
80692;PMS5003;70055;39.436;-77.514;2023-06-14T11:51:35;18;17;
80692;PMS5003;70055;39.436;-77.514;2023-06-14T11:54:05;18;15;
80692;PMS5003;70055;39.436;-77.514;2023-06-14T11:56:34;19;17;
80692;PMS5003;70055;39.436;-77.514;2023-06-14T11:59:04;15;15;
80692;PMS5003;70055;39.436;-77.514;2023-06-14T12:01:35;15;15;
80692;PMS5003;70055;39.436;-77.514;2023-06-14T12:04:04;15;15;
80692;PMS5003;70055;39.436;-77.514;2023-06-14T12:06:32;17;17;
80692;PMS5003;70055;39.436;-77.514;2023-06-14T12:09:02;16;16;
80692;PMS5003;70055;39.436;-77.514;2023-06-14T12:11:32;19;18;
80692;PMS5003;70055;39.436;-77.514;2023-06-14T12:14:02;18;18;
80692;PMS5003;70055;39.436;-77.514;2023-06-14T12:16:32;17;17;
80692;PMS5003;70055;39.436;-77.514;2023-06-14T12:19:08;18;17;
80692;PMS5003;70055;39.436;-77.514;2023-06-14T12:21:39;18;18;
80692;PMS5003;70055;39.436;-77.514;2023-06-14T12:24:08;19;19;
80692;PMS5003;70055;39.436;-77.514;2023-06-14T12:26:37;21;20;
80692;PMS5003;70055;39.436;-77.514;2023-06-14T12:29:06;22;22;
80692;PMS5003;70055;39.436;-77.514;2023-06-14T12:31:34;18;18;
80692;PMS5003;70055;39.436;-77.514;2023-06-14T12:34:03;18;17;
80692;PMS5003;70055;39.436;-77.514;2023-06-14T12:36:30;16;16;
80692;PMS5003;70055;39.436;-77.514;2023-06-14T12:38:59;16;15;
80692;PMS5003;70055;39.436;-77.514;2023-06-14T12:41:27;18;17;
80692;PMS5003;70055;39.436;-77.514;2023-06-14T12:43:55;21;20;
80692;PMS5003;70055;39.436;-77.514;2023-06-14T12:46:23;21;21;
80692;PMS5003;70055;39.436;-77.514;2023-06-14T12:48:52;21;21;
80692;PMS5003;70055;39.436;-77.514;2023-06-14T12:51:20;19;19;
80692;PMS5003;70055;39.436;-77.514;2023-06-14T12:53:48;20;19;
80692;PMS5003;70055;39.436;-77.514;2023-06-14T12:56:15;21;20;
80692;PMS5003;70055;39.436;-77.514;2023-06-14T12:58:44;19;17;
80692;PMS5003;70055;39.436;-77.514;2023-06-14T13:01:12;19;19;
80692;PMS5003;70055;39.436;-77.514;2023-06-14T13:03:39;20;19;
80692;PMS5003;70055;39.436;-77.514;2023-06-14T13:06:08;20;20;
80692;PMS5003;70055;39.436;-77.514;2023-06-14T13:08:37;21;20;
80692;PMS5003;70055;39.436;-77.514;2023-06-14T13:11:05;22;22;
80692;PMS5003;70055;39.436;-77.514;2023-06-14T13:13:33;18;18;
80692;PMS5003;70055;39.436;-77.514;2023-06-14T13:16:02;21;20;
80692;PMS5003;70055;39.436;-77.514;2023-06-14T13:18:34;15;15;
80692;PMS5003;70055;39.436;-77.514;2023-06-14T13:21:03;21;20;
80692;PMS5003;70055;39.436;-77.514;2023-06-14T13:23:32;20;20;
80692;PMS5003;70055;39.436;-77.514;2023-06-14T13:25:59;21;20;
80692;PMS5003;70055;39.436;-77.514;2023-06-14T13:28:27;19;19;
80692;PMS5003;70055;39.436;-77.514;2023-06-14T13:30:56;20;20;
80692;PMS5003;70055;39.436;-77.514;2023-06-14T13:33:25;19;19;
80692;PMS5003;70055;39.436;-77.514;2023-06-14T13:35:52;18;18;
80692;PMS5003;70055;39.436;-77.514;2023-06-14T13:38:20;20;19;
80692;PMS5003;70055;39.436;-77.514;2023-06-14T13:40:48;20;20;
80692;PMS5003;70055;39.436;-77.514;2023-06-14T13:43:16;18;17;
80692;PMS5003;70055;39.436;-77.514;2023-06-14T13:45:45;20;19;
80692;PMS5003;70055;39.436;-77.514;2023-06-14T13:48:14;19;19;
80692;PMS5003;70055;39.436;-77.514;2023-06-14T13:50:43;20;19;
80692;PMS5003;70055;39.436;-77.514;2023-06-14T13:53:11;20;19;
80692;PMS5003;70055;39.436;-77.514;2023-06-14T13:55:39;19;18;
80692;PMS5003;70055;39.436;-77.514;2023-06-14T13:58:07;18;18;
80692;PMS5003;70055;39.436;-77.514;2023-06-14T14:00:35;17;17;
80692;PMS5003;70055;39.436;-77.514;2023-06-14T14:03:03;18;17;
80692;PMS5003;70055;39.436;-77.514;2023-06-14T14:05:32;19;19;
80692;PMS5003;70055;39.436;-77.514;2023-06-14T14:08:01;18;17;
80692;PMS5003;70055;39.436;-77.514;2023-06-14T14:10:30;18;18;
80692;PMS5003;70055;39.436;-77.514;2023-06-14T14:12:58;21;20;
80692;PMS5003;70055;39.436;-77.514;2023-06-14T14:15:27;22;22;
80692;PMS5003;70055;39.436;-77.514;2023-06-14T14:17:55;19;19;
80692;PMS5003;70055;39.436;-77.514;2023-06-14T14:20:23;20;20;
80692;PMS5003;70055;39.436;-77.514;2023-06-14T14:22:52;21;21;
80692;PMS5003;70055;39.436;-77.514;2023-06-14T14:25:20;16;15;
80692;PMS5003;70055;39.436;-77.514;2023-06-14T14:27:48;21;21;
80692;PMS5003;70055;39.436;-77.514;2023-06-14T14:30:16;20;20;
80692;PMS5003;70055;39.436;-77.514;2023-06-14T14:32:44;20;19;
80692;PMS5003;70055;39.436;-77.514;2023-06-14T14:35:13;20;20;
80692;PMS5003;70055;39.436;-77.514;2023-06-14T14:37:42;22;22;
80692;PMS5003;70055;39.436;-77.514;2023-06-14T14:40:10;21;21;
80692;PMS5003;70055;39.436;-77.514;2023-06-14T14:42:39;22;22;
80692;PMS5003;70055;39.436;-77.514;2023-06-14T14:45:09;20;19;
80692;PMS5003;70055;39.436;-77.514;2023-06-14T14:47:38;22;21;
80692;PMS5003;70055;39.436;-77.514;2023-06-14T14:50:06;21;20;
80692;PMS5003;70055;39.436;-77.514;2023-06-14T14:52:34;22;20;
80692;PMS5003;70055;39.436;-77.514;2023-06-14T14:55:02;22;21;
80692;PMS5003;70055;39.436;-77.514;2023-06-14T14:57:31;17;17;
80692;PMS5003;70055;39.436;-77.514;2023-06-14T14:59:59;19;19;
80692;PMS5003;70055;39.436;-77.514;2023-06-14T15:02:27;20;18;
80692;PMS5003;70055;39.436;-77.514;2023-06-14T15:04:56;19;18;
80692;PMS5003;70055;39.436;-77.514;2023-06-14T15:07:23;19;19;
80692;PMS5003;70055;39.436;-77.514;2023-06-14T15:09:50;18;17;
80692;PMS5003;70055;39.436;-77.514;2023-06-14T15:12:18;21;20;
80692;PMS5003;70055;39.436;-77.514;2023-06-14T15:14:46;17;17;
80692;PMS5003;70055;39.436;-77.514;2023-06-14T15:17:17;17;16;
80692;PMS5003;70055;39.436;-77.514;2023-06-14T15:19:45;18;17;
80692;PMS5003;70055;39.436;-77.514;2023-06-14T15:22:14;18;17;
80692;PMS5003;70055;39.436;-77.514;2023-06-14T15:24:43;19;19;
80692;PMS5003;70055;39.436;-77.514;2023-06-14T15:27:12;19;18;
80692;PMS5003;70055;39.436;-77.514;2023-06-14T15:29:41;20;19;
80692;PMS5003;70055;39.436;-77.514;2023-06-14T15:32:09;18;18;
80692;PMS5003;70055;39.436;-77.514;2023-06-14T15:34:38;16;16;
80692;PMS5003;70055;39.436;-77.514;2023-06-14T15:37:06;18;17;
80692;PMS5003;70055;39.436;-77.514;2023-06-14T15:39:34;16;16;
80692;PMS5003;70055;39.436;-77.514;2023-06-14T15:42:02;16;15;
80692;PMS5003;70055;39.436;-77.514;2023-06-14T15:44:31;17;16;
80692;PMS5003;70055;39.436;-77.514;2023-06-14T15:47:00;13;13;
80692;PMS5003;70055;39.436;-77.514;2023-06-14T15:49:28;9;9;
80692;PMS5003;70055;39.436;-77.514;2023-06-14T15:51:56;6;6;
80692;PMS5003;70055;39.436;-77.514;2023-06-14T15:54:24;8;7;
80692;PMS5003;70055;39.436;-77.514;2023-06-14T15:56:52;4;4;
80692;PMS5003;70055;39.436;-77.514;2023-06-14T15:59:20;7;6;